Time;durP1;ratioP1;P1;durP2;ratioP2;P2;SDS_P1;SDS_P2;PMS_P1;PMS_P2;Temp;Humidity;BMP_temperature;BMP_pressure;BME280_temperature;BME280_humidity;BME280_pressure;Samples;Min_cycle;Max_cycle;Signal;HPM_P1;HPM_P2
2021/12/18 00:02:02;;;;;;;;;;;;;;;;;;5083348;28;20010;-69
2021/12/18 00:04:29;;;;;;;;;;;;;;;;;;5088562;28;20019;-69
2021/12/18 00:06:57;;;;;;;;;;;;;;;;;;5087218;28;19924;-69
2021/12/18 00:09:25;;;;;;;;;;;;;;;;;;5079406;28;20300;-70
2021/12/18 00:11:52;;;;;;;;;;;;;;;;;;5082495;28;20015;-69
2021/12/18 00:14:19;;;;;;;;;;;;;;;;;;5082687;28;19924;-69
2021/12/18 00:16:46;;;;;;;;;;;;;;;;;;5087986;28;19924;-70
2021/12/18 00:19:13;;;;;;;;;;;;;;;;;;5088558;28;19946;-70
2021/12/18 00:21:40;;;;;;;;;;;;;;;;;;5088190;28;19924;-70
2021/12/18 00:24:07;;;;;;;;;;;;;;;;;;5082537;28;20308;-70
2021/12/18 00:26:34;;;;;;;;;;;;;;;;;;5078844;28;19932;-70
2021/12/18 00:29:01;;;;;;;;;;;;;;;;;;5077129;28;19933;-69
2021/12/18 00:31:28;;;;;;;;;;;;;;;;;;5087158;28;19947;-69
2021/12/18 00:33:55;;;;;;;;;;;;;;;;;;5089143;28;19924;-70
2021/12/18 00:36:22;;;;;;;;;;;;;;;;;;5079875;28;19924;-69
2021/12/18 00:38:49;;;;;;;;;;;;;;;;;;5090938;28;19930;-69
2021/12/18 00:41:34;;;;;;;;;;;;;;;;;;5083419;28;19932;-70
2021/12/18 00:44:04;;;;;;;;;;;;;;;;;;5080849;28;19986;-69
2021/12/18 00:46:31;;;;;;;;;;;;;;;;;;5086652;28;19924;-70
2021/12/18 00:48:58;;;;;;;;;;;;;;;;;;5082523;28;19930;-69
2021/12/18 00:51:25;;;;;;;;;;;;;;;;;;5086103;28;19929;-69
2021/12/18 00:53:52;;;;;;;;;;;;;;;;;;5080438;28;19935;-70
2021/12/18 00:56:19;;;;;;;;;;;;;;;;;;5088057;28;20427;-70
2021/12/18 00:58:48;;;;;;;;;;;;;;;;;;5084577;28;19924;-69
2021/12/18 01:01:15;;;;;;;;;;;;;;;;;;5088458;28;20027;-69
2021/12/18 01:03:44;;;;;;;;;;;;;;;;;;5091397;28;19970;-69
2021/12/18 01:06:11;;;;;;;;;;;;;;;;;;5089431;28;20012;-70
2021/12/18 01:08:38;;;;;;;;;;;;;;;;;;5093363;28;19924;-70
2021/12/18 01:14:03;;;;;;;;;;;;;;;;;;5078455;28;19921;-69
2021/12/18 01:16:40;;;;;;;;;;;;;;;;;;5088826;28;19930;-70
2021/12/18 01:24:39;;;;;;;;;;;;;;;;;;5052945;28;20003;-70
2021/12/18 01:27:06;;;;;;;;;;;;;;;;;;5084881;28;20273;-69
2021/12/18 01:29:33;;;;;;;;;;;;;;;;;;5080237;28;19930;-69
2021/12/18 01:32:00;;;;;;;;;;;;;;;;;;5082315;28;19931;-70
2021/12/18 01:34:27;;;;;;;;;;;;;;;;;;5082771;28;19924;-70
2021/12/18 01:36:54;;;;;;;;;;;;;;;;;;5090200;28;19946;-70
2021/12/18 01:39:21;;;;;;;;;;;;;;;;;;5091124;28;20007;-69
2021/12/18 01:42:16;;;;;;;;;;;;;;;;;;5082745;28;19924;-69
2021/12/18 01:44:55;;;;;;;;;;;;;;;;;;5081777;28;19928;-69
2021/12/18 01:52:53;;;;;;;;;;;;;;;;;;5073838;28;19922;-68
2021/12/18 01:55:20;;;;;;;;;;;;;;;;;;5087707;28;19924;-68
2021/12/18 01:57:47;;;;;;;;;;;;;;;;;;5088529;28;19930;-69
2021/12/18 02:00:14;;;;;;;;;;;;;;;;;;5089145;28;19989;-69
2021/12/18 02:02:41;;;;;;;;;;;;;;;;;;5081745;28;20015;-69
2021/12/18 02:05:08;;;;;;;;;;;;;;;;;;5083824;28;20305;-69
2021/12/18 02:07:35;;;;;;;;;;;;;;;;;;5082912;28;19934;-69
2021/12/18 02:10:06;;;;;;;;;;;;;;;;;;5083384;28;19932;-69
2021/12/18 02:12:41;;;;;;;;;;;;;;;;;;5088748;28;19924;-69
2021/12/18 02:20:49;;;;;;;;;;;;;;;;;;5022874;28;20016;-70
2021/12/18 02:23:16;;;;;;;;;;;;;;;;;;5071910;28;20274;-70
2021/12/18 02:25:43;;;;;;;;;;;;;;;;;;5077599;28;20386;-70
2021/12/18 02:28:16;;;;;;;;;;;;;;;;;;5093941;28;19928;-69
2021/12/18 02:30:43;;;;;;;;;;;;;;;;;;5082870;28;19928;-70
2021/12/18 02:33:10;;;;;;;;;;;;;;;;;;5086283;28;19935;-69
2021/12/18 02:35:41;;;;;;;;;;;;;;;;;;5088198;28;19930;-70
2021/12/18 02:38:11;;;;;;;;;;;;;;;;;;5089066;28;20369;-70
2021/12/18 02:43:27;;;;;;;;;;;;;;;;;;5089931;28;20388;-69
2021/12/18 02:45:59;;;;;;;;;;;;;;;;;;5077447;28;19935;-69
2021/12/18 02:48:26;;;;;;;;;;;;;;;;;;5079086;28;19977;-70
2021/12/18 02:50:53;;;;;;;;;;;;;;;;;;5085035;28;19938;-69
2021/12/18 02:53:20;;;;;;;;;;;;;;;;;;5079068;28;20365;-70
2021/12/18 02:55:47;;;;;;;;;;;;;;;;;;5081978;28;19947;-69
2021/12/18 02:58:13;;;;;;;;;;;;;;;;;;5084024;28;19924;-69
2021/12/18 03:00:40;;;;;;;;;;;;;;;;;;5085354;28;19935;-70
2021/12/18 03:03:10;;;;;;;;;;;;;;;;;;5083868;28;19932;-70
2021/12/18 03:05:44;;;;;;;;;;;;;;;;;;5088543;28;19964;-70
2021/12/18 03:08:18;;;;;;;;;;;;;;;;;;5082667;28;20392;-70
2021/12/18 03:24:41;;;;;;;;;;;;;;;;;;5049093;28;19967;-69
2021/12/18 03:27:08;;;;;;;;;;;;;;;;;;5087140;28;19989;-70
2021/12/18 03:29:35;;;;;;;;;;;;;;;;;;5092568;28;19928;-69
2021/12/18 03:32:02;;;;;;;;;;;;;;;;;;5094575;28;19975;-69
2021/12/18 03:34:29;;;;;;;;;;;;;;;;;;5086204;28;20423;-69
2021/12/18 03:36:56;;;;;;;;;;;;;;;;;;5087304;28;19943;-70
2021/12/18 03:39:23;;;;;;;;;;;;;;;;;;5084812;28;19928;-69
2021/12/18 03:41:50;;;;;;;;;;;;;;;;;;5089975;28;20297;-69
2021/12/18 03:44:17;;;;;;;;;;;;;;;;;;5082758;28;20415;-69
2021/12/18 03:46:44;;;;;;;;;;;;;;;;;;5089368;28;20389;-69
2021/12/18 03:49:11;;;;;;;;;;;;;;;;;;5084521;28;20412;-69
2021/12/18 03:51:38;;;;;;;;;;;;;;;;;;5082791;28;19940;-69
2021/12/18 03:54:06;;;;;;;;;;;;;;;;;;5083444;28;19972;-70
2021/12/18 03:56:33;;;;;;;;;;;;;;;;;;5090469;28;19931;-70
2021/12/18 03:59:00;;;;;;;;;;;;;;;;;;5084034;28;20284;-69
2021/12/18 04:01:27;;;;;;;;;;;;;;;;;;5086386;28;19924;-69
2021/12/18 04:03:54;;;;;;;;;;;;;;;;;;5087044;28;19924;-70
2021/12/18 04:06:21;;;;;;;;;;;;;;;;;;5090449;28;20444;-69
2021/12/18 04:08:48;;;;;;;;;;;;;;;;;;5089336;28;19924;-69
2021/12/18 04:11:15;;;;;;;;;;;;;;;;;;5078553;28;19934;-70
2021/12/18 04:13:45;;;;;;;;;;;;;;;;;;5088020;28;19930;-70
2021/12/18 04:16:12;;;;;;;;;;;;;;;;;;5080931;28;19925;-69
2021/12/18 04:18:39;;;;;;;;;;;;;;;;;;5092442;28;19935;-69
2021/12/18 04:21:06;;;;;;;;;;;;;;;;;;5090749;28;19934;-70
2021/12/18 04:23:33;;;;;;;;;;;;;;;;;;5087646;28;19924;-68
2021/12/18 04:26:00;;;;;;;;;;;;;;;;;;5081834;28;19924;-69
2021/12/18 04:28:27;;;;;;;;;;;;;;;;;;5086505;28;19924;-69
2021/12/18 04:30:54;;;;;;;;;;;;;;;;;;5090524;28;19924;-69
2021/12/18 04:33:21;;;;;;;;;;;;;;;;;;5097328;28;20005;-70
2021/12/18 04:35:48;;;;;;;;;;;;;;;;;;5086600;28;20045;-70
2021/12/18 04:38:14;;;;;;;;;;;;;;;;;;5092858;28;19924;-69
2021/12/18 04:40:43;;;;;;;;;;;;;;;;;;5080339;28;19931;-69
2021/12/18 04:43:10;;;;;;;;;;;;;;;;;;5081176;28;19968;-68
2021/12/18 04:45:37;;;;;;;;;;;;;;;;;;5088341;28;19928;-69
2021/12/18 04:48:04;;;;;;;;;;;;;;;;;;5092231;28;19935;-69
2021/12/18 04:50:31;;;;;;;;;;;;;;;;;;5091123;28;20355;-69
2021/12/18 04:52:58;;;;;;;;;;;;;;;;;;5082892;28;20006;-70
2021/12/18 04:55:25;;;;;;;;;;;;;;;;;;5080560;28;19928;-69
2021/12/18 04:57:54;;;;;;;;;;;;;;;;;;5098913;28;20005;-69
2021/12/18 05:00:22;;;;;;;;;;;;;;;;;;5075334;28;19924;-70
2021/12/18 05:02:51;;;;;;;;;;;;;;;;;;5087406;28;19946;-69
2021/12/18 05:05:18;;;;;;;;;;;;;;;;;;5088402;28;20296;-69
2021/12/18 05:07:45;;;;;;;;;;;;;;;;;;5088368;28;19924;-69
2021/12/18 05:10:12;;;;;;;;;;;;;;;;;;5084487;28;19932;-69
2021/12/18 05:12:39;;;;;;;;;;;;;;;;;;5087339;28;20281;-69
2021/12/18 05:15:06;;;;;;;;;;;;;;;;;;5077268;28;19928;-68
2021/12/18 05:17:33;;;;;;;;;;;;;;;;;;5087717;28;19931;-68
2021/12/18 05:20:00;;;;;;;;;;;;;;;;;;5078260;28;20404;-69
2021/12/18 05:22:27;;;;;;;;;;;;;;;;;;5086919;28;19928;-69
2021/12/18 05:24:54;;;;;;;;;;;;;;;;;;5073994;28;19924;-69
2021/12/18 05:27:21;;;;;;;;;;;;;;;;;;5090081;28;19928;-69
2021/12/18 05:29:48;;;;;;;;;;;;;;;;;;5087063;28;20286;-69
2021/12/18 05:32:15;;;;;;;;;;;;;;;;;;5082645;28;19928;-69
2021/12/18 05:34:42;;;;;;;;;;;;;;;;;;5087122;28;19931;-69
2021/12/18 05:37:30;;;;;;;;;;;;;;;;;;5083525;28;19924;-69
2021/12/18 05:39:57;;;;;;;;;;;;;;;;;;5080363;28;20246;-69
2021/12/18 05:42:24;;;;;;;;;;;;;;;;;;5096084;28;19931;-69
2021/12/18 05:44:51;;;;;;;;;;;;;;;;;;5081389;28;19932;-69
2021/12/18 05:47:19;;;;;;;;;;;;;;;;;;5084071;28;19931;-70
2021/12/18 05:49:46;;;;;;;;;;;;;;;;;;5078014;28;19970;-69
2021/12/18 05:52:13;;;;;;;;;;;;;;;;;;5080771;28;19928;-69
2021/12/18 05:54:40;;;;;;;;;;;;;;;;;;5088341;28;19924;-69
2021/12/18 05:57:07;;;;;;;;;;;;;;;;;;5086155;28;19924;-69
2021/12/18 05:59:34;;;;;;;;;;;;;;;;;;5080631;28;20386;-67
2021/12/18 06:02:01;;;;;;;;;;;;;;;;;;5081144;28;20014;-68
2021/12/18 06:04:28;;;;;;;;;;;;;;;;;;5081976;28;19936;-69
2021/12/18 06:07:03;;;;;;;;;;;;;;;;;;5089927;28;19928;-69
2021/12/18 06:09:30;;;;;;;;;;;;;;;;;;5076967;28;20022;-69
2021/12/18 06:11:57;;;;;;;;;;;;;;;;;;5085162;28;19924;-69
2021/12/18 06:14:24;;;;;;;;;;;;;;;;;;5081468;28;19928;-69
2021/12/18 06:16:51;;;;;;;;;;;;;;;;;;5081876;28;19924;-69
2021/12/18 06:19:17;;;;;;;;;;;;;;;;;;5081185;28;20075;-69
2021/12/18 06:21:44;;;;;;;;;;;;;;;;;;5082697;28;19924;-69
2021/12/18 06:24:11;;;;;;;;;;;;;;;;;;5083585;28;19924;-69
2021/12/18 06:26:38;;;;;;;;;;;;;;;;;;5084977;28;20373;-68
2021/12/18 06:29:05;;;;;;;;;;;;;;;;;;5083946;28;19928;-69
2021/12/18 06:31:33;;;;;;;;;;;;;;;;;;5077927;28;19931;-69
2021/12/18 06:34:00;;;;;;;;;;;;;;;;;;5080685;28;19932;-69
2021/12/18 06:36:27;;;;;;;;;;;;;;;;;;5082765;28;19928;-69
2021/12/18 06:38:54;;;;;;;;;;;;;;;;;;5087969;28;19924;-68
2021/12/18 06:41:21;;;;;;;;;;;;;;;;;;5082496;28;19931;-66
2021/12/18 06:43:48;;;;;;;;;;;;;;;;;;5084297;28;19931;-69
2021/12/18 06:46:15;;;;;;;;;;;;;;;;;;5079400;28;19930;-69
2021/12/18 06:48:41;;;;;;;;;;;;;;;;;;5076816;28;19932;-69
2021/12/18 06:51:08;;;;;;;;;;;;;;;;;;5086254;28;19924;-69
2021/12/18 06:53:35;;;;;;;;;;;;;;;;;;5088103;28;19924;-69
2021/12/18 06:56:03;;;;;;;;;;;;;;;;;;5079530;28;19928;-69
2021/12/18 06:58:30;;;;;;;;;;;;;;;;;;5076475;28;19955;-69
2021/12/18 07:00:59;;;;;;;;;;;;;;;;;;5082521;28;20265;-68
2021/12/18 07:03:26;;;;;;;;;;;;;;;;;;5085145;28;19928;-69
2021/12/18 07:05:53;;;;;;;;;;;;;;;;;;5083945;28;19934;-69
2021/12/18 07:08:20;;;;;;;;;;;;;;;;;;5078134;28;20377;-68
2021/12/18 07:10:47;;;;;;;;;;;;;;;;;;5084343;28;19928;-69
2021/12/18 07:13:13;;;;;;;;;;;;;;;;;;5084242;28;19924;-69
2021/12/18 07:15:42;;;;;;;;;;;;;;;;;;5081092;28;19924;-68
2021/12/18 07:18:09;;;;;;;;;;;;;;;;;;5079337;28;19947;-69
2021/12/18 07:20:35;;;;;;;;;;;;;;;;;;5090425;28;19924;-68
2021/12/18 07:23:02;;;;;;;;;;;;;;;;;;5076323;28;20308;-69
2021/12/18 07:25:29;;;;;;;;;;;;;;;;;;5076316;28;19932;-69
2021/12/18 07:27:56;;;;;;;;;;;;;;;;;;5083309;28;19951;-70
2021/12/18 07:30:23;;;;;;;;;;;;;;;;;;5074229;28;19928;-70
2021/12/18 07:32:50;;;;;;;;;;;;;;;;;;5084397;28;20399;-70
2021/12/18 07:35:17;;;;;;;;;;;;;;;;;;5075344;28;19924;-69
2021/12/18 07:37:44;;;;;;;;;;;;;;;;;;5082772;28;19933;-69
2021/12/18 07:40:11;;;;;;;;;;;;;;;;;;5080881;28;19932;-69
2021/12/18 07:42:38;;;;;;;;;;;;;;;;;;5076230;28;19931;-70
2021/12/18 07:45:05;;;;;;;;;;;;;;;;;;5088524;28;19936;-69
2021/12/18 07:47:32;;;;;;;;;;;;;;;;;;5091782;28;19947;-69
2021/12/18 07:49:59;;;;;;;;;;;;;;;;;;5075467;28;19924;-69
2021/12/18 07:52:26;;;;;;;;;;;;;;;;;;5079606;28;19946;-69
2021/12/18 07:54:53;;;;;;;;;;;;;;;;;;5082645;28;19939;-69
2021/12/18 07:57:19;;;;;;;;;;;;;;;;;;5090963;28;20119;-69
2021/12/18 07:59:46;;;;;;;;;;;;;;;;;;5074494;28;19938;-69
2021/12/18 08:02:13;;;;;;;;;;;;;;;;;;5079626;28;19924;-69
2021/12/18 08:04:40;;;;;;;;;;;;;;;;;;5083397;28;19924;-69
2021/12/18 08:07:07;;;;;;;;;;;;;;;;;;5089466;28;19935;-69
2021/12/18 08:09:34;;;;;;;;;;;;;;;;;;5090163;28;19924;-68
2021/12/18 08:12:01;;;;;;;;;;;;;;;;;;5085794;28;19928;-70
2021/12/18 08:14:28;;;;;;;;;;;;;;;;;;5079404;28;19935;-71
2021/12/18 08:16:55;;;;;;;;;;;;;;;;;;5086466;28;19924;-71
2021/12/18 08:19:22;;;;;;;;;;;;;;;;;;5090022;28;19930;-70
2021/12/18 08:21:49;;;;;;;;;;;;;;;;;;5083251;28;19924;-71
2021/12/18 08:24:16;;;;;;;;;;;;;;;;;;5079180;28;20412;-70
2021/12/18 08:26:43;;;;;;;;;;;;;;;;;;5088893;28;20408;-70
2021/12/18 08:29:10;;;;;;;;;;;;;;;;;;5086724;28;19930;-70
2021/12/18 08:31:37;;;;;;;;;;;;;;;;;;5088370;28;19936;-70
2021/12/18 08:34:03;;;;;;;;;;;;;;;;;;5089122;28;19931;-70
2021/12/18 08:36:30;;;;;;;;;;;;;;;;;;5077946;28;20381;-70
2021/12/18 08:38:57;;;;;;;;;;;;;;;;;;5089387;28;19928;-70
2021/12/18 08:41:24;;;;;;;;;;;;;;;;;;5085042;28;19923;-70
2021/12/18 08:43:51;;;;;;;;;;;;;;;;;;5087507;28;19928;-71
2021/12/18 08:46:18;;;;;;;;;;;;;;;;;;5083753;28;20011;-70
2021/12/18 08:48:45;;;;;;;;;;;;;;;;;;5095420;28;19924;-70
2021/12/18 08:51:12;;;;;;;;;;;;;;;;;;5090120;28;19924;-70
2021/12/18 08:53:39;;;;;;;;;;;;;;;;;;5083113;28;20409;-70
2021/12/18 08:56:06;;;;;;;;;;;;;;;;;;5091386;28;20300;-71
2021/12/18 08:58:33;;;;;;;;;;;;;;;;;;5085027;28;20389;-70
2021/12/18 09:01:00;;;;;;;;;;;;;;;;;;5089927;28;20300;-70
2021/12/18 09:03:27;;;;;;;;;;;;;;;;;;5076480;28;19933;-70
2021/12/18 09:05:54;;;;;;;;;;;;;;;;;;5088299;28;19977;-70
2021/12/18 09:08:21;;;;;;;;;;;;;;;;;;5091758;28;19931;-70
2021/12/18 09:10:48;;;;;;;;;;;;;;;;;;5088288;28;19924;-70
2021/12/18 09:13:15;;;;;;;;;;;;;;;;;;5080384;28;19938;-70
2021/12/18 09:15:42;;;;;;;;;;;;;;;;;;5078809;28;19932;-71
2021/12/18 09:18:09;;;;;;;;;;;;;;;;;;5083674;28;19930;-71
2021/12/18 09:20:36;;;;;;;;;;;;;;;;;;5078974;28;19935;-70
2021/12/18 09:23:03;;;;;;;;;;;;;;;;;;5077807;28;20211;-70
2021/12/18 09:25:30;;;;;;;;;;;;;;;;;;5081382;28;20300;-71
2021/12/18 09:27:57;;;;;;;;;;;;;;;;;;5095778;28;20415;-70
2021/12/18 09:30:24;;;;;;;;;;;;;;;;;;5084076;28;19924;-70
2021/12/18 09:32:51;;;;;;;;;;;;;;;;;;5081087;28;19950;-70
2021/12/18 09:35:18;;;;;;;;;;;;;;;;;;5081609;28;20024;-71
2021/12/18 09:37:45;;;;;;;;;;;;;;;;;;5092097;28;19924;-70
2021/12/18 09:40:12;;;;;;;;;;;;;;;;;;5082621;28;19924;-70
2021/12/18 09:42:39;;;;;;;;;;;;;;;;;;5091541;28;19928;-70
2021/12/18 09:45:06;;;;;;;;;;;;;;;;;;5078596;28;19928;-70
2021/12/18 09:47:33;;;;;;;;;;;;;;;;;;5071750;28;20275;-70
2021/12/18 09:50:00;;;;;;;;;;;;;;;;;;5075446;28;19932;-70
2021/12/18 09:52:27;;;;;;;;;;;;;;;;;;5074672;28;19939;-70
2021/12/18 09:54:54;;;;;;;;;;;;;;;;;;5081423;28;20411;-70
2021/12/18 09:57:21;;;;;;;;;;;;;;;;;;5083687;28;20377;-69
2021/12/18 09:59:48;;;;;;;;;;;;;;;;;;5082732;28;19946;-70
2021/12/18 10:02:15;;;;;;;;;;;;;;;;;;5085601;28;19931;-69
2021/12/18 10:04:42;;;;;;;;;;;;;;;;;;5094065;28;19932;-69
2021/12/18 10:07:09;;;;;;;;;;;;;;;;;;5078483;28;20119;-68
2021/12/18 10:09:36;;;;;;;;;;;;;;;;;;5073218;28;20294;-68
2021/12/18 10:12:03;;;;;;;;;;;;;;;;;;5088279;28;20374;-68
2021/12/18 10:14:30;;;;;;;;;;;;;;;;;;5087778;28;19925;-69
2021/12/18 10:16:57;;;;;;;;;;;;;;;;;;5081314;28;19928;-69
2021/12/18 10:19:25;;;;;;;;;;;;;;;;;;5080099;28;19924;-70
2021/12/18 10:21:52;;;;;;;;;;;;;;;;;;5078620;28;20282;-69
2021/12/18 10:24:19;;;;;;;;;;;;;;;;;;5081085;28;19925;-69
2021/12/18 10:26:46;;;;;;;;;;;;;;;;;;5086325;28;19924;-68
2021/12/18 10:29:13;;;;;;;;;;;;;;;;;;5083436;28;19924;-69
2021/12/18 10:31:40;;;;;;;;;;;;;;;;;;5078900;28;19939;-69
2021/12/18 10:34:07;;;;;;;;;;;;;;;;;;5079089;28;19928;-69
2021/12/18 10:36:34;;;;;;;;;;;;;;;;;;5075536;28;19932;-69
2021/12/18 10:39:01;;;;;;;;;;;;;;;;;;5071259;28;19938;-69
2021/12/18 10:41:28;;;;;;;;;;;;;;;;;;5070125;28;20309;-68
2021/12/18 10:43:55;;;;;;;;;;;;;;;;;;5081180;28;19924;-70
2021/12/18 10:46:22;;;;;;;;;;;;;;;;;;5069840;28;19925;-69
2021/12/18 10:48:49;;;;;;;;;;;;;;;;;;5079498;28;19930;-70
2021/12/18 10:51:16;;;;;;;;;;;;;;;;;;5080033;28;20007;-70
2021/12/18 10:53:43;;;;;;;;;;;;;;;;;;5085067;28;19924;-69
2021/12/18 10:56:10;;;;;;;;;;;;;;;;;;5081422;28;20095;-69
2021/12/18 10:58:37;;;;;;;;;;;;;;;;;;5076348;28;20401;-69
2021/12/18 11:01:04;;;;;;;;;;;;;;;;;;5076071;28;19928;-69
2021/12/18 11:03:31;;;;;;;;;;;;;;;;;;5081214;28;19924;-70
2021/12/18 11:05:58;;;;;;;;;;;;;;;;;;5080358;28;19924;-69
2021/12/18 11:08:25;;;;;;;;;;;;;;;;;;5083271;28;19931;-70
2021/12/18 11:11:05;;;;;;;;;;;;;;;;;;5079674;28;20018;-69
2021/12/18 11:13:45;;;;;;;;;;;;;;;;;;5072701;28;19933;-69
2021/12/18 11:16:12;;;;;;;;;;;;;;;;;;5083106;28;20278;-69
2021/12/18 11:18:39;;;;;;;;;;;;;;;;;;5078187;28;19928;-69
2021/12/18 11:21:06;;;;;;;;;;;;;;;;;;5083504;28;19931;-69
2021/12/18 11:23:33;;;;;;;;;;;;;;;;;;5076386;28;19930;-68
2021/12/18 11:26:00;;;;;;;;;;;;;;;;;;5076606;28;19930;-68
2021/12/18 11:28:27;;;;;;;;;;;;;;;;;;5078948;28;19939;-68
2021/12/18 11:30:54;;;;;;;;;;;;;;;;;;5076810;28;19934;-68
2021/12/18 11:33:21;;;;;;;;;;;;;;;;;;5083680;28;20411;-69
2021/12/18 11:35:48;;;;;;;;;;;;;;;;;;5087845;28;19929;-68
2021/12/18 11:38:15;;;;;;;;;;;;;;;;;;5078935;28;19930;-68
2021/12/18 11:40:42;;;;;;;;;;;;;;;;;;5083606;28;19924;-68
2021/12/18 11:43:09;;;;;;;;;;;;;;;;;;5081396;28;20020;-68
2021/12/18 11:45:36;;;;;;;;;;;;;;;;;;5077030;28;19931;-68
2021/12/18 11:48:03;;;;;;;;;;;;;;;;;;5085248;28;20033;-67
2021/12/18 11:50:31;;;;;;;;;;;;;;;;;;5084856;28;19978;-67
2021/12/18 11:52:58;;;;;;;;;;;;;;;;;;5084078;28;19924;-68
2021/12/18 11:55:25;;;;;;;;;;;;;;;;;;5076418;28;20512;-68
2021/12/18 11:57:52;;;;;;;;;;;;;;;;;;5084560;28;19928;-68
2021/12/18 12:00:21;;;;;;;;;;;;;;;;;;5081788;28;20357;-69
2021/12/18 12:02:48;;;;;;;;;;;;;;;;;;5082569;28;19935;-69
2021/12/18 12:05:15;;;;;;;;;;;;;;;;;;5082139;28;19928;-68
2021/12/18 12:07:43;;;;;;;;;;;;;;;;;;5076941;28;20314;-69
2021/12/18 12:10:13;;;;;;;;;;;;;;;;;;5078047;28;20204;-70
2021/12/18 12:12:40;;;;;;;;;;;;;;;;;;5080607;28;19932;-70
2021/12/18 12:15:07;;;;;;;;;;;;;;;;;;5082095;28;20341;-70
2021/12/18 12:17:34;;;;;;;;;;;;;;;;;;5087374;28;19930;-70
2021/12/18 12:20:01;;;;;;;;;;;;;;;;;;5084299;28;19950;-72
2021/12/18 12:22:28;;;;;;;;;;;;;;;;;;5082005;28;19935;-71
2021/12/18 12:24:55;;;;;;;;;;;;;;;;;;5078922;28;20431;-69
2021/12/18 12:27:22;;;;;;;;;;;;;;;;;;5079332;28;19930;-70
2021/12/18 12:29:50;;;;;;;;;;;;;;;;;;5084142;28;19932;-69
2021/12/18 12:32:20;;;;;;;;;;;;;;;;;;5084211;28;19928;-70
2021/12/18 12:34:47;;;;;;;;;;;;;;;;;;5080255;28;20015;-70
2021/12/18 12:37:14;;;;;;;;;;;;;;;;;;5082154;28;19930;-70
2021/12/18 12:39:41;;;;;;;;;;;;;;;;;;5081138;28;20015;-70
2021/12/18 12:42:08;;;;;;;;;;;;;;;;;;5081796;28;19928;-70
2021/12/18 12:44:39;;;;;;;;;;;;;;;;;;5079596;28;19924;-70
2021/12/18 12:47:06;;;;;;;;;;;;;;;;;;5081802;28;20030;-70
2021/12/18 12:49:33;;;;;;;;;;;;;;;;;;5084980;28;19925;-71
2021/12/18 12:52:00;;;;;;;;;;;;;;;;;;5078629;28;19963;-70
2021/12/18 12:54:27;;;;;;;;;;;;;;;;;;5080663;28;20069;-70
2021/12/18 12:56:54;;;;;;;;;;;;;;;;;;5082118;22;20317;-66
2021/12/18 12:59:21;;;;;;;;;;;;;;;;;;5069194;28;19925;-67
2021/12/18 13:01:48;;;;;;;;;;;;;;;;;;5067298;28;19929;-66
2021/12/18 13:04:15;;;;;;;;;;;;;;;;;;5065407;28;20019;-66
2021/12/18 13:06:42;;;;;;;;;;;;;;;;;;5066447;28;20305;-66
2021/12/18 13:09:09;;;;;;;;;;;;;;;;;;5070176;28;19935;-66
2021/12/18 13:11:37;;;;;;;;;;;;;;;;;;5062137;28;19924;-66
2021/12/18 13:14:03;;;;;;;;;;;;;;;;;;5066955;28;19950;-67
2021/12/18 13:16:30;;;;;;;;;;;;;;;;;;5067588;28;19935;-67
2021/12/18 13:18:58;;;;;;;;;;;;;;;;;;5068536;28;19924;-66
2021/12/18 13:21:25;;;;;;;;;;;;;;;;;;5064877;28;19963;-67
2021/12/18 13:23:52;;;;;;;;;;;;;;;;;;5064991;28;20309;-67
2021/12/18 13:26:18;;;;;;;;;;;;;;;;;;5066331;28;19925;-65
2021/12/18 13:28:45;;;;;;;;;;;;;;;;;;5065795;28;19939;-68
2021/12/18 13:31:12;;;;;;;;;;;;;;;;;;5065692;28;19931;-68
2021/12/18 13:33:39;;;;;;;;;;;;;;;;;;5066455;28;19935;-70
2021/12/18 13:36:06;;;;;;;;;;;;;;;;;;5060914;28;19951;-66
2021/12/18 13:38:33;;;;;;;;;;;;;;;;;;5065811;28;19924;-65
2021/12/18 13:41:00;;;;;;;;;;;;;;;;;;5066594;28;19928;-67
2021/12/18 13:43:27;;;;;;;;;;;;;;;;;;5066111;28;20250;-65
2021/12/18 13:45:54;;;;;;;;;;;;;;;;;;5062990;28;19929;-67
2021/12/18 13:48:21;;;;;;;;;;;;;;;;;;5066586;28;20136;-66
2021/12/18 13:50:48;;;;;;;;;;;;;;;;;;5066093;28;20120;-67
2021/12/18 13:53:14;;;;;;;;;;;;;;;;;;5064335;28;19924;-66
2021/12/18 13:55:43;;;;;;;;;;;;;;;;;;5061007;28;19974;-66
2021/12/18 13:58:10;;;;;;;;;;;;;;;;;;5064075;28;20014;-67
2021/12/18 14:00:37;;;;;;;;;;;;;;;;;;5064283;28;19938;-67
2021/12/18 14:03:03;;;;;;;;;;;;;;;;;;5062934;28;19925;-66
2021/12/18 14:05:30;;;;;;;;;;;;;;;;;;5063931;28;20469;-66
2021/12/18 14:07:57;;;;;;;;;;;;;;;;;;5065896;28;19935;-66
2021/12/18 14:10:24;;;;;;;;;;;;;;;;;;5063840;28;19935;-65
2021/12/18 14:12:51;;;;;;;;;;;;;;;;;;5061736;28;20389;-66
2021/12/18 14:15:18;;;;;;;;;;;;;;;;;;5064858;28;19925;-65
2021/12/18 14:17:45;;;;;;;;;;;;;;;;;;5063197;28;19925;-65
2021/12/18 14:20:12;;;;;;;;;;;;;;;;;;5064259;28;19928;-66
2021/12/18 14:22:39;;;;;;;;;;;;;;;;;;5061703;28;19929;-65
2021/12/18 14:25:06;;;;;;;;;;;;;;;;;;5064778;28;19929;-65
2021/12/18 14:27:33;;;;;;;;;;;;;;;;;;5061173;28;20286;-67
2021/12/18 14:30:00;;;;;;;;;;;;;;;;;;5065441;28;19925;-66
2021/12/18 14:32:26;;;;;;;;;;;;;;;;;;5065566;28;20007;-67
2021/12/18 14:34:53;;;;;;;;;;;;;;;;;;5064220;28;19936;-66
2021/12/18 14:37:20;;;;;;;;;;;;;;;;;;5061525;28;20255;-66
2021/12/18 14:39:48;;;;;;;;;;;;;;;;;;5065034;28;19924;-66
2021/12/18 14:42:15;;;;;;;;;;;;;;;;;;5064863;28;19925;-64
2021/12/18 14:44:42;;;;;;;;;;;;;;;;;;5062653;28;20286;-64
2021/12/18 14:47:09;;;;;;;;;;;;;;;;;;5063488;28;20050;-65
2021/12/18 14:49:36;;;;;;;;;;;;;;;;;;5063539;28;19929;-65
2021/12/18 14:52:03;;;;;;;;;;;;;;;;;;5063870;28;19931;-65
2021/12/18 14:54:30;;;;;;;;;;;;;;;;;;5059624;28;20293;-66
2021/12/18 14:56:57;;;;;;;;;;;;;;;;;;5063223;28;20289;-65
2021/12/18 14:59:23;;;;;;;;;;;;;;;;;;5063801;28;20305;-66
2021/12/18 15:01:50;;;;;;;;;;;;;;;;;;5063947;28;20329;-67
2021/12/18 15:04:17;;;;;;;;;;;;;;;;;;5063941;28;19928;-67
2021/12/18 15:06:45;;;;;;;;;;;;;;;;;;5064469;28;20294;-67
2021/12/18 15:09:13;;;;;;;;;;;;;;;;;;5065242;28;20017;-65
2021/12/18 15:11:40;;;;;;;;;;;;;;;;;;5061236;28;19939;-67
2021/12/18 15:14:07;;;;;;;;;;;;;;;;;;5062354;28;20325;-67
2021/12/18 15:16:34;;;;;;;;;;;;;;;;;;5063165;28;20342;-67
2021/12/18 15:19:01;;;;;;;;;;;;;;;;;;5064821;28;19925;-66
2021/12/18 15:21:27;;;;;;;;;;;;;;;;;;5063662;28;19931;-66
2021/12/18 15:23:57;;;;;;;;;;;;;;;;;;5061595;28;19928;-67
2021/12/18 15:26:26;;;;;;;;;;;;;;;;;;5065778;28;19958;-67
2021/12/18 15:28:53;;;;;;;;;;;;;;;;;;5063549;28;20011;-66
2021/12/18 15:31:20;;;;;;;;;;;;;;;;;;5064049;28;19928;-67
2021/12/18 15:33:46;;;;;;;;;;;;;;;;;;5063584;28;19933;-66
2021/12/18 15:36:13;;;;;;;;;;;;;;;;;;5064704;28;19924;-67
2021/12/18 15:38:40;;;;;;;;;;;;;;;;;;5064899;28;20429;-67
2021/12/18 15:41:07;;;;;;;;;;;;;;;;;;5062786;28;19936;-67
2021/12/18 15:43:34;;;;;;;;;;;;;;;;;;5057289;28;19924;-68
2021/12/18 15:46:01;;;;;;;;;;;;;;;;;;5056336;28;19924;-68
2021/12/18 15:48:28;;;;;;;;;;;;;;;;;;5063181;28;19931;-68
2021/12/18 15:50:55;;;;;;;;;;;;;;;;;;5060932;28;19924;-68
2021/12/18 15:53:22;;;;;;;;;;;;;;;;;;5065625;28;19928;-69
2021/12/18 15:55:49;;;;;;;;;;;;;;;;;;5059479;28;20305;-69
2021/12/18 15:58:18;;;;;;;;;;;;;;;;;;5065522;28;19925;-67
2021/12/18 16:00:45;;;;;;;;;;;;;;;;;;5062045;28;19928;-68
2021/12/18 16:03:12;;;;;;;;;;;;;;;;;;5063357;28;19935;-69
2021/12/18 16:05:39;;;;;;;;;;;;;;;;;;5061678;28;20366;-69
2021/12/18 16:08:07;;;;;;;;;;;;;;;;;;5061812;28;19925;-67
2021/12/18 16:10:34;;;;;;;;;;;;;;;;;;5062745;28;20318;-68
2021/12/18 16:13:01;;;;;;;;;;;;;;;;;;5063046;28;19932;-67
2021/12/18 16:15:28;;;;;;;;;;;;;;;;;;5064141;28;19932;-68
2021/12/18 16:17:55;;;;;;;;;;;;;;;;;;5063046;28;20014;-68
2021/12/18 16:20:22;;;;;;;;;;;;;;;;;;5063206;28;19929;-67
2021/12/18 16:22:49;;;;;;;;;;;;;;;;;;5065973;28;19924;-68
2021/12/18 16:25:16;;;;;;;;;;;;;;;;;;5065668;28;19925;-68
2021/12/18 16:27:43;;;;;;;;;;;;;;;;;;5069314;28;19931;-68
2021/12/18 16:30:10;;;;;;;;;;;;;;;;;;5066229;28;20287;-68
2021/12/18 16:32:37;;;;;;;;;;;;;;;;;;5065201;28;19932;-68
2021/12/18 16:35:04;;;;;;;;;;;;;;;;;;5066214;28;19925;-68
2021/12/18 16:37:32;;;;;;;;;;;;;;;;;;5064163;28;19928;-68
2021/12/18 16:39:59;;;;;;;;;;;;;;;;;;5067558;28;20293;-67
2021/12/18 16:42:26;;;;;;;;;;;;;;;;;;5066887;28;19932;-67
2021/12/18 16:44:53;;;;;;;;;;;;;;;;;;5069351;28;19928;-67
2021/12/18 16:47:20;;;;;;;;;;;;;;;;;;5064838;28;19924;-68
2021/12/18 16:49:54;;;;;;;;;;;;;;;;;;5067811;28;19928;-67
2021/12/18 16:52:21;;;;;;;;;;;;;;;;;;5066226;28;19978;-67
2021/12/18 16:54:47;;;;;;;;;;;;;;;;;;5067814;28;19924;-67
2021/12/18 16:57:15;;;;;;;;;;;;;;;;;;5066285;28;19929;-68
2021/12/18 16:59:42;;;;;;;;;;;;;;;;;;5067234;28;19986;-68
2021/12/18 17:02:09;;;;;;;;;;;;;;;;;;5064333;28;19928;-68
2021/12/18 17:04:36;;;;;;;;;;;;;;;;;;5063791;28;19931;-69
2021/12/18 17:07:03;;;;;;;;;;;;;;;;;;5066214;28;19925;-69
2021/12/18 17:09:30;;;;;;;;;;;;;;;;;;5068760;28;19924;-69
2021/12/18 17:11:57;;;;;;;;;;;;;;;;;;5064149;28;19935;-70
2021/12/18 17:14:24;;;;;;;;;;;;;;;;;;5064405;28;19925;-69
2021/12/18 17:16:51;;;;;;;;;;;;;;;;;;5066364;28;19963;-69
2021/12/18 17:19:18;;;;;;;;;;;;;;;;;;5066243;28;19947;-67
2021/12/18 17:21:45;;;;;;;;;;;;;;;;;;5060162;28;20405;-69
2021/12/18 17:24:12;;;;;;;;;;;;;;;;;;5063512;28;19928;-66